sensor_id;sensor_type;location;lat;lon;timestamp;temperature;humidity
33011;DHT22;19370;48.562;9.196;2024-01-15T15:00:05;0.40;99.90
33011;DHT22;19370;48.562;9.196;2024-01-15T15:02:33;0.40;99.90
33011;DHT22;19370;48.562;9.196;2024-01-15T15:05:04;0.50;99.90
33011;DHT22;19370;48.562;9.196;2024-01-15T15:07:30;0.50;99.90
33011;DHT22;19370;48.562;9.196;2024-01-15T15:09:56;0.50;99.90
33011;DHT22;19370;48.562;9.196;2024-01-15T15:12:30;0.40;99.90
33011;DHT22;19370;48.562;9.196;2024-01-15T15:14:56;0.40;99.90
33011;DHT22;19370;48.562;9.196;2024-01-15T15:17:47;0.40;99.90
33011;DHT22;19370;48.562;9.196;2024-01-15T15:20:34;0.40;99.90
33011;DHT22;19370;48.562;9.196;2024-01-15T15:23:10;0.50;99.90
33011;DHT22;19370;48.562;9.196;2024-01-15T15:25:54;0.50;99.90
33011;DHT22;19370;48.562;9.196;2024-01-15T15:28:19;0.60;99.90
33011;DHT22;19370;48.562;9.196;2024-01-15T15:31:05;0.60;99.90
33011;DHT22;19370;48.562;9.196;2024-01-15T15:34:03;0.60;99.90
33011;DHT22;19370;48.562;9.196;2024-01-15T15:36:38;0.60;99.90
33011;DHT22;19370;48.562;9.196;2024-01-15T15:39:10;0.50;99.90
33011;DHT22;19370;48.562;9.196;2024-01-15T15:41:36;0.60;99.90
33011;DHT22;19370;48.562;9.196;2024-01-15T15:44:04;0.70;99.90
33011;DHT22;19370;48.562;9.196;2024-01-15T15:46:38;0.60;99.90
33011;DHT22;19370;48.562;9.196;2024-01-15T15:49:22;0.50;99.90
33011;DHT22;19370;48.562;9.196;2024-01-15T15:51:51;0.50;99.90
33011;DHT22;19370;48.562;9.196;2024-01-15T15:55:01;0.40;99.90
33011;DHT22;19370;48.562;9.196;2024-01-15T15:57:28;0.40;99.90
33011;DHT22;19370;48.562;9.196;2024-01-15T16:00:01;0.40;99.90
33011;DHT22;19370;48.562;9.196;2024-01-15T16:02:36;0.40;99.90
33011;DHT22;19370;48.562;9.196;2024-01-15T16:05:17;0.40;99.90
33011;DHT22;19370;48.562;9.196;2024-01-15T16:07:44;0.40;99.90
33011;DHT22;19370;48.562;9.196;2024-01-15T16:10:10;0.40;99.90
33011;DHT22;19370;48.562;9.196;2024-01-15T16:12:43;0.50;99.90
33011;DHT22;19370;48.562;9.196;2024-01-15T16:15:17;0.40;99.90
33011;DHT22;19370;48.562;9.196;2024-01-15T16:17:53;0.40;99.90
33011;DHT22;19370;48.562;9.196;2024-01-15T16:20:19;0.40;99.90
33011;DHT22;19370;48.562;9.196;2024-01-15T16:22:47;0.40;99.90
33011;DHT22;19370;48.562;9.196;2024-01-15T16:25:12;0.30;99.90
33011;DHT22;19370;48.562;9.196;2024-01-15T16:27:38;0.30;99.90
33011;DHT22;19370;48.562;9.196;2024-01-15T16:30:26;0.30;99.90
33011;DHT22;19370;48.562;9.196;2024-01-15T16:32:51;0.20;99.90
33011;DHT22;19370;48.562;9.196;2024-01-15T16:35:17;0.20;99.90
33011;DHT22;19370;48.562;9.196;2024-01-15T16:37:43;0.20;99.90
33011;DHT22;19370;48.562;9.196;2024-01-15T16:40:09;0.30;99.90
33011;DHT22;19370;48.562;9.196;2024-01-15T16:42:34;0.20;99.90
33011;DHT22;19370;48.562;9.196;2024-01-15T16:45:00;0.20;99.90
33011;DHT22;19370;48.562;9.196;2024-01-15T16:47:26;0.20;99.90
33011;DHT22;19370;48.562;9.196;2024-01-15T16:49:51;0.20;99.90
33011;DHT22;19370;48.562;9.196;2024-01-15T16:52:31;0.20;99.90
33011;DHT22;19370;48.562;9.196;2024-01-15T16:54:57;0.20;99.90
33011;DHT22;19370;48.562;9.196;2024-01-15T16:57:23;0.10;99.90
33011;DHT22;19370;48.562;9.196;2024-01-15T16:59:49;0.10;99.90
33011;DHT22;19370;48.562;9.196;2024-01-15T17:02:16;0.20;99.90
33011;DHT22;19370;48.562;9.196;2024-01-15T17:04:42;0.20;99.90
33011;DHT22;19370;48.562;9.196;2024-01-15T17:07:08;0.20;99.90
33011;DHT22;19370;48.562;9.196;2024-01-15T17:09:42;0.10;99.90
33011;DHT22;19370;48.562;9.196;2024-01-15T17:12:08;0.20;99.90
33011;DHT22;19370;48.562;9.196;2024-01-15T17:14:47;0.20;99.90
33011;DHT22;19370;48.562;9.196;2024-01-15T17:17:13;0.20;99.90
33011;DHT22;19370;48.562;9.196;2024-01-15T17:19:41;0.20;99.90
33011;DHT22;19370;48.562;9.196;2024-01-15T17:22:07;0.20;99.90
33011;DHT22;19370;48.562;9.196;2024-01-15T17:24:34;0.20;99.90
33011;DHT22;19370;48.562;9.196;2024-01-15T17:27:00;0.20;99.90
33011;DHT22;19370;48.562;9.196;2024-01-15T17:29:25;0.10;99.90
33011;DHT22;19370;48.562;9.196;2024-01-15T17:31:51;0.10;99.90
33011;DHT22;19370;48.562;9.196;2024-01-15T17:34:19;0.20;99.90
33011;DHT22;19370;48.562;9.196;2024-01-15T17:36:46;0.10;99.90
33011;DHT22;19370;48.562;9.196;2024-01-15T17:39:13;0.10;99.90
33011;DHT22;19370;48.562;9.196;2024-01-15T17:41:43;0.00;99.90
33011;DHT22;19370;48.562;9.196;2024-01-15T17:44:15;0.00;99.90
33011;DHT22;19370;48.562;9.196;2024-01-15T17:46:42;-0.10;99.90
33011;DHT22;19370;48.562;9.196;2024-01-15T17:49:08;-0.10;99.90
33011;DHT22;19370;48.562;9.196;2024-01-15T17:51:37;-0.20;99.90
33011;DHT22;19370;48.562;9.196;2024-01-15T17:54:03;-0.10;99.90
33011;DHT22;19370;48.562;9.196;2024-01-15T17:56:30;0.00;99.90
33011;DHT22;19370;48.562;9.196;2024-01-15T17:58:56;-0.10;99.90
33011;DHT22;19370;48.562;9.196;2024-01-15T18:01:21;-0.10;99.90
33011;DHT22;19370;48.562;9.196;2024-01-15T18:03:50;-0.10;99.90
33011;DHT22;19370;48.562;9.196;2024-01-15T18:06:17;0.00;99.90
33011;DHT22;19370;48.562;9.196;2024-01-15T18:08:44;-0.10;99.90
33011;DHT22;19370;48.562;9.196;2024-01-15T18:11:18;-0.10;99.90
33011;DHT22;19370;48.562;9.196;2024-01-15T18:13:44;-0.10;99.90
33011;DHT22;19370;48.562;9.196;2024-01-15T18:16:11;-0.10;99.90
33011;DHT22;19370;48.562;9.196;2024-01-15T18:18:37;-0.10;99.90
33011;DHT22;19370;48.562;9.196;2024-01-15T18:21:03;-0.10;99.90
33011;DHT22;19370;48.562;9.196;2024-01-15T18:23:32;-0.20;99.90
33011;DHT22;19370;48.562;9.196;2024-01-15T18:25:59;-0.20;99.90
33011;DHT22;19370;48.562;9.196;2024-01-15T18:28:25;-0.20;99.90
33011;DHT22;19370;48.562;9.196;2024-01-15T18:30:51;-0.20;99.90
33011;DHT22;19370;48.562;9.196;2024-01-15T18:33:23;-0.30;99.90
33011;DHT22;19370;48.562;9.196;2024-01-15T18:35:49;-0.30;99.90
33011;DHT22;19370;48.562;9.196;2024-01-15T18:38:15;-0.20;99.90
33011;DHT22;19370;48.562;9.196;2024-01-15T18:40:40;-0.20;99.90
33011;DHT22;19370;48.562;9.196;2024-01-15T18:43:06;-0.20;99.90
33011;DHT22;19370;48.562;9.196;2024-01-15T18:45:31;-0.30;99.90
33011;DHT22;19370;48.562;9.196;2024-01-15T18:47:57;-0.40;99.90
33011;DHT22;19370;48.562;9.196;2024-01-15T18:50:23;-0.40;99.90
33011;DHT22;19370;48.562;9.196;2024-01-15T18:52:48;-0.40;99.90
33011;DHT22;19370;48.562;9.196;2024-01-15T18:55:14;-0.40;99.90
33011;DHT22;19370;48.562;9.196;2024-01-15T18:57:46;-0.40;99.90
33011;DHT22;19370;48.562;9.196;2024-01-15T19:00:13;-0.40;99.90
33011;DHT22;19370;48.562;9.196;2024-01-15T19:02:44;-0.50;99.90
33011;DHT22;19370;48.562;9.196;2024-01-15T19:05:10;-0.50;99.90
33011;DHT22;19370;48.562;9.196;2024-01-15T19:07:41;-0.50;99.90
33011;DHT22;19370;48.562;9.196;2024-01-15T19:10:11;-0.50;99.90
33011;DHT22;19370;48.562;9.196;2024-01-15T19:12:37;-0.50;99.90
33011;DHT22;19370;48.562;9.196;2024-01-15T19:15:03;-0.50;99.90
33011;DHT22;19370;48.562;9.196;2024-01-15T19:17:28;-0.40;99.90
33011;DHT22;19370;48.562;9.196;2024-01-15T19:20:17;-0.30;99.90
33011;DHT22;19370;48.562;9.196;2024-01-15T19:22:46;-0.40;99.90
33011;DHT22;19370;48.562;9.196;2024-01-15T19:25:21;-0.40;99.90
33011;DHT22;19370;48.562;9.196;2024-01-15T19:27:56;-0.50;99.90
33011;DHT22;19370;48.562;9.196;2024-01-15T19:30:27;-0.40;99.90
33011;DHT22;19370;48.562;9.196;2024-01-15T19:33:01;-0.40;99.90
33011;DHT22;19370;48.562;9.196;2024-01-15T19:35:29;-0.40;99.90
33011;DHT22;19370;48.562;9.196;2024-01-15T19:37:55;-0.40;99.90
33011;DHT22;19370;48.562;9.196;2024-01-15T19:40:21;-0.40;99.90
33011;DHT22;19370;48.562;9.196;2024-01-15T19:43:02;-0.40;99.90
33011;DHT22;19370;48.562;9.196;2024-01-15T19:45:56;-0.40;99.90
33011;DHT22;19370;48.562;9.196;2024-01-15T19:48:22;-0.40;99.90
33011;DHT22;19370;48.562;9.196;2024-01-15T19:50:52;-0.30;99.90
33011;DHT22;19370;48.562;9.196;2024-01-15T19:53:21;-0.30;99.90
33011;DHT22;19370;48.562;9.196;2024-01-15T19:55:46;-0.40;99.90
33011;DHT22;19370;48.562;9.196;2024-01-15T19:58:12;-0.40;99.90
33011;DHT22;19370;48.562;9.196;2024-01-15T20:00:39;-0.30;99.90
33011;DHT22;19370;48.562;9.196;2024-01-15T20:03:05;-0.40;99.90
33011;DHT22;19370;48.562;9.196;2024-01-15T20:05:31;-0.30;99.90
33011;DHT22;19370;48.562;9.196;2024-01-15T20:07:57;-0.40;99.90
33011;DHT22;19370;48.562;9.196;2024-01-15T20:10:23;-0.30;99.90
33011;DHT22;19370;48.562;9.196;2024-01-15T20:12:55;-0.30;99.90
33011;DHT22;19370;48.562;9.196;2024-01-15T20:15:32;-0.30;99.90
33011;DHT22;19370;48.562;9.196;2024-01-15T20:18:07;-0.30;99.90
33011;DHT22;19370;48.562;9.196;2024-01-15T20:20:33;-0.40;99.90
33011;DHT22;19370;48.562;9.196;2024-01-15T20:23:02;-0.40;99.90
33011;DHT22;19370;48.562;9.196;2024-01-15T20:25:29;-0.40;99.90
33011;DHT22;19370;48.562;9.196;2024-01-15T20:28:01;-0.40;99.90
33011;DHT22;19370;48.562;9.196;2024-01-15T20:30:26;-0.20;99.90
33011;DHT22;19370;48.562;9.196;2024-01-15T20:32:52;-0.40;99.90
33011;DHT22;19370;48.562;9.196;2024-01-15T20:35:18;-0.30;99.90
33011;DHT22;19370;48.562;9.196;2024-01-15T20:37:43;-0.30;99.90
33011;DHT22;19370;48.562;9.196;2024-01-15T20:40:09;-0.30;99.90
33011;DHT22;19370;48.562;9.196;2024-01-15T20:42:41;-0.30;99.90
33011;DHT22;19370;48.562;9.196;2024-01-15T20:45:14;-0.30;99.90
33011;DHT22;19370;48.562;9.196;2024-01-15T20:47:40;-0.40;99.90
33011;DHT22;19370;48.562;9.196;2024-01-15T20:50:06;-0.40;99.90
33011;DHT22;19370;48.562;9.196;2024-01-15T20:52:32;-0.30;99.90
33011;DHT22;19370;48.562;9.196;2024-01-15T20:54:57;-0.40;99.90
33011;DHT22;19370;48.562;9.196;2024-01-15T20:57:23;-0.30;99.90
33011;DHT22;19370;48.562;9.196;2024-01-15T20:59:49;-0.30;99.90
33011;DHT22;19370;48.562;9.196;2024-01-15T21:02:14;-0.30;99.90
33011;DHT22;19370;48.562;9.196;2024-01-15T21:04:40;-0.30;99.90
33011;DHT22;19370;48.562;9.196;2024-01-15T21:07:06;-0.20;99.90
33011;DHT22;19370;48.562;9.196;2024-01-15T21:09:35;-0.20;99.90
33011;DHT22;19370;48.562;9.196;2024-01-15T21:12:06;-0.40;99.90
33011;DHT22;19370;48.562;9.196;2024-01-15T21:14:32;-0.40;99.90
33011;DHT22;19370;48.562;9.196;2024-01-15T21:16:58;-0.40;99.90
33011;DHT22;19370;48.562;9.196;2024-01-15T21:19:37;-0.40;99.90
33011;DHT22;19370;48.562;9.196;2024-01-15T21:22:08;-0.40;99.90
33011;DHT22;19370;48.562;9.196;2024-01-15T21:24:38;-0.40;99.90
33011;DHT22;19370;48.562;9.196;2024-01-15T21:27:04;-0.30;99.90
33011;DHT22;19370;48.562;9.196;2024-01-15T21:29:31;-0.40;99.90
33011;DHT22;19370;48.562;9.196;2024-01-15T21:31:56;-0.30;99.90
33011;DHT22;19370;48.562;9.196;2024-01-15T21:34:22;-0.40;99.90
33011;DHT22;19370;48.562;9.196;2024-01-15T21:36:48;-0.40;99.90
33011;DHT22;19370;48.562;9.196;2024-01-15T21:39:16;-0.40;99.90
33011;DHT22;19370;48.562;9.196;2024-01-15T21:41:47;-0.40;99.90
33011;DHT22;19370;48.562;9.196;2024-01-15T21:44:26;-0.50;99.90
33011;DHT22;19370;48.562;9.196;2024-01-15T21:47:00;-0.50;99.90
33011;DHT22;19370;48.562;9.196;2024-01-15T21:49:26;-0.50;99.90
33011;DHT22;19370;48.562;9.196;2024-01-15T21:51:52;-0.50;99.90
33011;DHT22;19370;48.562;9.196;2024-01-15T21:54:34;-0.50;99.90
33011;DHT22;19370;48.562;9.196;2024-01-15T21:57:00;-0.50;99.90
33011;DHT22;19370;48.562;9.196;2024-01-15T21:59:26;-0.60;99.90
33011;DHT22;19370;48.562;9.196;2024-01-15T22:01:52;-0.60;99.90
33011;DHT22;19370;48.562;9.196;2024-01-15T22:04:21;-0.60;99.90
33011;DHT22;19370;48.562;9.196;2024-01-15T22:06:47;-0.60;99.90
33011;DHT22;19370;48.562;9.196;2024-01-15T22:09:13;-0.70;99.90
33011;DHT22;19370;48.562;9.196;2024-01-15T22:11:38;-0.60;99.90
33011;DHT22;19370;48.562;9.196;2024-01-15T22:14:11;-0.60;99.90
33011;DHT22;19370;48.562;9.196;2024-01-15T22:16:37;-0.60;99.90
33011;DHT22;19370;48.562;9.196;2024-01-15T22:19:12;-0.70;99.90
33011;DHT22;19370;48.562;9.196;2024-01-15T22:22:00;-0.60;99.90
33011;DHT22;19370;48.562;9.196;2024-01-15T22:24:25;-0.60;99.90
33011;DHT22;19370;48.562;9.196;2024-01-15T22:26:59;-0.70;99.90
33011;DHT22;19370;48.562;9.196;2024-01-15T22:29:25;-0.70;99.90
33011;DHT22;19370;48.562;9.196;2024-01-15T22:31:51;-0.60;99.90
33011;DHT22;19370;48.562;9.196;2024-01-15T22:34:42;-0.60;99.90
33011;DHT22;19370;48.562;9.196;2024-01-15T22:37:07;-0.50;99.90
33011;DHT22;19370;48.562;9.196;2024-01-15T22:39:33;-0.60;99.90
33011;DHT22;19370;48.562;9.196;2024-01-15T22:41:59;-0.60;99.90
33011;DHT22;19370;48.562;9.196;2024-01-15T22:44:24;-0.60;99.90
33011;DHT22;19370;48.562;9.196;2024-01-15T22:46:56;-0.70;99.90
33011;DHT22;19370;48.562;9.196;2024-01-15T22:49:22;-0.70;99.90
33011;DHT22;19370;48.562;9.196;2024-01-15T22:51:47;-0.70;99.90
33011;DHT22;19370;48.562;9.196;2024-01-15T22:54:13;-0.70;99.90
33011;DHT22;19370;48.562;9.196;2024-01-15T22:56:39;-0.70;99.90
33011;DHT22;19370;48.562;9.196;2024-01-15T22:59:04;-0.80;99.90
33011;DHT22;19370;48.562;9.196;2024-01-15T23:01:30;-0.80;99.90
33011;DHT22;19370;48.562;9.196;2024-01-15T23:03:59;-0.80;99.90
33011;DHT22;19370;48.562;9.196;2024-01-15T23:06:24;-0.70;99.90
33011;DHT22;19370;48.562;9.196;2024-01-15T23:08:51;-0.70;99.90
33011;DHT22;19370;48.562;9.196;2024-01-15T23:11:18;-0.70;99.90
33011;DHT22;19370;48.562;9.196;2024-01-15T23:13:44;-0.60;99.90
33011;DHT22;19370;48.562;9.196;2024-01-15T23:16:15;-0.60;99.90
33011;DHT22;19370;48.562;9.196;2024-01-15T23:18:59;-0.60;99.90
33011;DHT22;19370;48.562;9.196;2024-01-15T23:21:24;-0.70;99.90
33011;DHT22;19370;48.562;9.196;2024-01-15T23:23:51;-0.60;99.90
33011;DHT22;19370;48.562;9.196;2024-01-15T23:26:18;-0.60;99.90
33011;DHT22;19370;48.562;9.196;2024-01-15T23:28:44;-0.70;99.90
33011;DHT22;19370;48.562;9.196;2024-01-15T23:31:16;-0.60;99.90
33011;DHT22;19370;48.562;9.196;2024-01-15T23:33:58;-0.50;99.90
33011;DHT22;19370;48.562;9.196;2024-01-15T23:36:24;-0.50;99.90
33011;DHT22;19370;48.562;9.196;2024-01-15T23:38:50;-0.50;99.90
33011;DHT22;19370;48.562;9.196;2024-01-15T23:41:19;-0.50;99.90
33011;DHT22;19370;48.562;9.196;2024-01-15T23:43:45;-0.50;99.90
33011;DHT22;19370;48.562;9.196;2024-01-15T23:46:12;-0.50;99.90
33011;DHT22;19370;48.562;9.196;2024-01-15T23:48:37;-0.60;99.90
33011;DHT22;19370;48.562;9.196;2024-01-15T23:51:10;-0.60;99.90
33011;DHT22;19370;48.562;9.196;2024-01-15T23:53:35;-0.60;99.90
33011;DHT22;19370;48.562;9.196;2024-01-15T23:56:12;-0.50;99.90
33011;DHT22;19370;48.562;9.196;2024-01-15T23:58:42;-0.40;99.90
